sensor_id;sensor_type;location;lat;lon;timestamp;temperature;humidity
45785;DHT22;31489;51.404;5.474;2024-03-06T00:02:07;11.40;73.00
45785;DHT22;31489;51.404;5.474;2024-03-06T00:04:33;11.30;73.30
45785;DHT22;31489;51.404;5.474;2024-03-06T00:06:59;11.20;72.90
45785;DHT22;31489;51.404;5.474;2024-03-06T00:09:25;11.20;72.90
45785;DHT22;31489;51.404;5.474;2024-03-06T00:11:54;11.10;72.80
45785;DHT22;31489;51.404;5.474;2024-03-06T00:14:21;11.10;72.80
45785;DHT22;31489;51.404;5.474;2024-03-06T00:16:50;11.10;72.70
45785;DHT22;31489;51.404;5.474;2024-03-06T00:19:19;11.10;73.30
45785;DHT22;31489;51.404;5.474;2024-03-06T00:21:46;11.00;72.60
45785;DHT22;31489;51.404;5.474;2024-03-06T00:24:15;11.00;72.60
45785;DHT22;31489;51.404;5.474;2024-03-06T00:26:41;11.00;72.70
45785;DHT22;31489;51.404;5.474;2024-03-06T00:29:08;10.90;72.50
45785;DHT22;31489;51.404;5.474;2024-03-06T00:31:34;10.90;72.60
45785;DHT22;31489;51.404;5.474;2024-03-06T00:33:59;10.80;72.50
45785;DHT22;31489;51.404;5.474;2024-03-06T00:36:25;10.90;72.50
45785;DHT22;31489;51.404;5.474;2024-03-06T00:38:50;10.80;72.60
45785;DHT22;31489;51.404;5.474;2024-03-06T00:41:16;10.80;72.60
45785;DHT22;31489;51.404;5.474;2024-03-06T00:43:42;10.70;72.50
45785;DHT22;31489;51.404;5.474;2024-03-06T00:46:07;10.70;72.60
45785;DHT22;31489;51.404;5.474;2024-03-06T00:48:33;10.70;72.60
45785;DHT22;31489;51.404;5.474;2024-03-06T00:50:59;10.60;73.00
45785;DHT22;31489;51.404;5.474;2024-03-06T00:53:24;10.60;72.50
45785;DHT22;31489;51.404;5.474;2024-03-06T00:55:50;10.60;72.50
45785;DHT22;31489;51.404;5.474;2024-03-06T00:58:15;10.50;72.40
45785;DHT22;31489;51.404;5.474;2024-03-06T01:00:41;10.50;72.40
45785;DHT22;31489;51.404;5.474;2024-03-06T01:03:07;10.50;72.30
45785;DHT22;31489;51.404;5.474;2024-03-06T01:05:32;10.50;72.30
45785;DHT22;31489;51.404;5.474;2024-03-06T01:07:58;10.40;72.20
45785;DHT22;31489;51.404;5.474;2024-03-06T01:10:24;10.40;72.30
45785;DHT22;31489;51.404;5.474;2024-03-06T01:12:50;10.40;72.30
45785;DHT22;31489;51.404;5.474;2024-03-06T01:15:16;10.30;72.30
45785;DHT22;31489;51.404;5.474;2024-03-06T01:17:42;10.30;72.30
45785;DHT22;31489;51.404;5.474;2024-03-06T01:20:08;10.30;72.30
45785;DHT22;31489;51.404;5.474;2024-03-06T01:22:34;10.20;72.30
45785;DHT22;31489;51.404;5.474;2024-03-06T01:25:00;10.20;72.20
45785;DHT22;31489;51.404;5.474;2024-03-06T01:27:26;10.20;72.10
45785;DHT22;31489;51.404;5.474;2024-03-06T01:29:51;10.10;72.10
45785;DHT22;31489;51.404;5.474;2024-03-06T01:32:17;10.10;72.20
45785;DHT22;31489;51.404;5.474;2024-03-06T01:34:43;10.10;72.20
45785;DHT22;31489;51.404;5.474;2024-03-06T01:37:09;10.10;72.00
45785;DHT22;31489;51.404;5.474;2024-03-06T01:39:34;10.00;72.00
45785;DHT22;31489;51.404;5.474;2024-03-06T01:42:04;10.00;72.10
45785;DHT22;31489;51.404;5.474;2024-03-06T01:44:30;10.00;72.20
45785;DHT22;31489;51.404;5.474;2024-03-06T01:46:55;9.90;72.10
45785;DHT22;31489;51.404;5.474;2024-03-06T01:49:22;9.90;72.10
45785;DHT22;31489;51.404;5.474;2024-03-06T01:51:51;9.90;72.10
45785;DHT22;31489;51.404;5.474;2024-03-06T01:54:18;9.80;72.10
45785;DHT22;31489;51.404;5.474;2024-03-06T01:56:46;9.80;72.10
45785;DHT22;31489;51.404;5.474;2024-03-06T01:59:13;9.80;72.10
45785;DHT22;31489;51.404;5.474;2024-03-06T02:01:40;9.80;72.10
45785;DHT22;31489;51.404;5.474;2024-03-06T02:04:09;9.70;72.00
45785;DHT22;31489;51.404;5.474;2024-03-06T02:06:41;9.70;72.00
45785;DHT22;31489;51.404;5.474;2024-03-06T02:09:07;9.70;71.90
45785;DHT22;31489;51.404;5.474;2024-03-06T02:11:35;9.70;72.00
45785;DHT22;31489;51.404;5.474;2024-03-06T02:14:02;9.60;71.90
45785;DHT22;31489;51.404;5.474;2024-03-06T02:16:28;9.70;71.90
45785;DHT22;31489;51.404;5.474;2024-03-06T02:18:57;9.60;71.90
45785;DHT22;31489;51.404;5.474;2024-03-06T02:21:24;9.60;71.90
45785;DHT22;31489;51.404;5.474;2024-03-06T02:23:51;9.60;71.90
45785;DHT22;31489;51.404;5.474;2024-03-06T02:26:20;9.50;71.90
45785;DHT22;31489;51.404;5.474;2024-03-06T02:28:50;9.50;72.00
45785;DHT22;31489;51.404;5.474;2024-03-06T02:31:17;9.50;71.90
45785;DHT22;31489;51.404;5.474;2024-03-06T02:33:46;9.50;71.90
45785;DHT22;31489;51.404;5.474;2024-03-06T02:36:18;9.50;72.00
45785;DHT22;31489;51.404;5.474;2024-03-06T02:38:44;9.40;71.90
45785;DHT22;31489;51.404;5.474;2024-03-06T02:41:10;9.40;71.70
45785;DHT22;31489;51.404;5.474;2024-03-06T02:43:37;9.40;71.70
45785;DHT22;31489;51.404;5.474;2024-03-06T02:46:03;9.40;71.70
45785;DHT22;31489;51.404;5.474;2024-03-06T02:48:29;9.30;71.80
45785;DHT22;31489;51.404;5.474;2024-03-06T02:50:55;9.30;71.90
45785;DHT22;31489;51.404;5.474;2024-03-06T02:53:20;9.30;72.00
45785;DHT22;31489;51.404;5.474;2024-03-06T02:55:47;9.30;72.20
45785;DHT22;31489;51.404;5.474;2024-03-06T02:58:13;9.30;72.40
45785;DHT22;31489;51.404;5.474;2024-03-06T03:00:42;9.30;72.50
45785;DHT22;31489;51.404;5.474;2024-03-06T03:03:09;9.30;72.70
45785;DHT22;31489;51.404;5.474;2024-03-06T03:05:35;9.40;72.80
45785;DHT22;31489;51.404;5.474;2024-03-06T03:08:01;9.30;72.90
45785;DHT22;31489;51.404;5.474;2024-03-06T03:10:29;9.40;73.00
45785;DHT22;31489;51.404;5.474;2024-03-06T03:12:55;9.40;73.10
45785;DHT22;31489;51.404;5.474;2024-03-06T03:15:20;9.40;73.10
45785;DHT22;31489;51.404;5.474;2024-03-06T03:17:46;9.40;73.20
45785;DHT22;31489;51.404;5.474;2024-03-06T03:20:12;9.40;73.30
45785;DHT22;31489;51.404;5.474;2024-03-06T03:22:41;9.40;73.30
45785;DHT22;31489;51.404;5.474;2024-03-06T03:25:08;9.40;73.40
45785;DHT22;31489;51.404;5.474;2024-03-06T03:27:36;9.50;73.60
45785;DHT22;31489;51.404;5.474;2024-03-06T03:30:02;9.40;73.60
45785;DHT22;31489;51.404;5.474;2024-03-06T03:32:28;9.40;73.70
45785;DHT22;31489;51.404;5.474;2024-03-06T03:34:54;9.50;73.80
45785;DHT22;31489;51.404;5.474;2024-03-06T03:37:19;9.50;73.70
45785;DHT22;31489;51.404;5.474;2024-03-06T03:39:45;9.50;73.60
45785;DHT22;31489;51.404;5.474;2024-03-06T03:42:11;9.50;73.50
45785;DHT22;31489;51.404;5.474;2024-03-06T03:44:37;9.50;73.50
45785;DHT22;31489;51.404;5.474;2024-03-06T03:47:02;9.50;73.40
45785;DHT22;31489;51.404;5.474;2024-03-06T03:49:28;9.50;73.30
45785;DHT22;31489;51.404;5.474;2024-03-06T03:51:54;9.50;73.20
45785;DHT22;31489;51.404;5.474;2024-03-06T03:54:19;9.50;73.10
45785;DHT22;31489;51.404;5.474;2024-03-06T03:56:45;9.50;73.00
45785;DHT22;31489;51.404;5.474;2024-03-06T03:59:10;9.50;73.00
45785;DHT22;31489;51.404;5.474;2024-03-06T04:01:36;9.50;72.90
45785;DHT22;31489;51.404;5.474;2024-03-06T04:04:02;9.40;72.70
45785;DHT22;31489;51.404;5.474;2024-03-06T04:06:27;9.40;72.70
45785;DHT22;31489;51.404;5.474;2024-03-06T04:08:53;9.40;72.70
45785;DHT22;31489;51.404;5.474;2024-03-06T04:11:18;9.40;72.60
45785;DHT22;31489;51.404;5.474;2024-03-06T04:13:44;9.30;72.50
45785;DHT22;31489;51.404;5.474;2024-03-06T04:16:09;9.30;72.40
45785;DHT22;31489;51.404;5.474;2024-03-06T04:18:35;9.30;72.40
45785;DHT22;31489;51.404;5.474;2024-03-06T04:21:07;9.30;72.40
45785;DHT22;31489;51.404;5.474;2024-03-06T04:23:33;9.20;72.40
45785;DHT22;31489;51.404;5.474;2024-03-06T04:25:59;9.20;72.20
45785;DHT22;31489;51.404;5.474;2024-03-06T04:28:25;9.10;72.20
45785;DHT22;31489;51.404;5.474;2024-03-06T04:30:51;9.10;72.10
45785;DHT22;31489;51.404;5.474;2024-03-06T04:33:16;9.10;72.10
45785;DHT22;31489;51.404;5.474;2024-03-06T04:35:42;9.10;72.10
45785;DHT22;31489;51.404;5.474;2024-03-06T04:38:08;9.00;72.10
45785;DHT22;31489;51.404;5.474;2024-03-06T04:40:34;9.00;72.10
45785;DHT22;31489;51.404;5.474;2024-03-06T04:43:00;9.00;72.10
45785;DHT22;31489;51.404;5.474;2024-03-06T04:45:26;8.90;72.10
45785;DHT22;31489;51.404;5.474;2024-03-06T04:47:52;8.90;72.10
45785;DHT22;31489;51.404;5.474;2024-03-06T04:50:17;8.90;72.00
45785;DHT22;31489;51.404;5.474;2024-03-06T04:52:43;8.80;72.00
45785;DHT22;31489;51.404;5.474;2024-03-06T04:55:10;8.80;72.00
45785;DHT22;31489;51.404;5.474;2024-03-06T04:57:37;8.80;72.00
45785;DHT22;31489;51.404;5.474;2024-03-06T05:00:04;8.70;71.90
45785;DHT22;31489;51.404;5.474;2024-03-06T05:02:36;8.70;71.90
45785;DHT22;31489;51.404;5.474;2024-03-06T05:05:03;8.70;71.90
45785;DHT22;31489;51.404;5.474;2024-03-06T05:07:29;8.70;72.00
45785;DHT22;31489;51.404;5.474;2024-03-06T05:09:56;8.60;72.00
45785;DHT22;31489;51.404;5.474;2024-03-06T05:12:23;8.60;72.00
45785;DHT22;31489;51.404;5.474;2024-03-06T05:14:49;8.60;72.00
45785;DHT22;31489;51.404;5.474;2024-03-06T05:17:14;8.60;72.00
45785;DHT22;31489;51.404;5.474;2024-03-06T05:19:40;8.50;71.90
45785;DHT22;31489;51.404;5.474;2024-03-06T05:22:06;8.50;71.90
45785;DHT22;31489;51.404;5.474;2024-03-06T05:24:31;8.50;71.90
45785;DHT22;31489;51.404;5.474;2024-03-06T05:26:57;8.50;71.90
45785;DHT22;31489;51.404;5.474;2024-03-06T05:29:22;8.50;71.80
45785;DHT22;31489;51.404;5.474;2024-03-06T05:31:48;8.50;71.80
45785;DHT22;31489;51.404;5.474;2024-03-06T05:34:14;8.40;71.80
45785;DHT22;31489;51.404;5.474;2024-03-06T05:36:39;8.40;71.80
45785;DHT22;31489;51.404;5.474;2024-03-06T05:39:05;8.40;71.80
45785;DHT22;31489;51.404;5.474;2024-03-06T05:41:33;8.30;71.90
45785;DHT22;31489;51.404;5.474;2024-03-06T05:43:58;8.40;71.90
45785;DHT22;31489;51.404;5.474;2024-03-06T05:46:24;8.30;71.80
45785;DHT22;31489;51.404;5.474;2024-03-06T05:48:51;8.30;71.80
45785;DHT22;31489;51.404;5.474;2024-03-06T05:51:17;8.30;71.80
45785;DHT22;31489;51.404;5.474;2024-03-06T05:53:43;8.30;71.80
45785;DHT22;31489;51.404;5.474;2024-03-06T05:56:09;8.30;71.80
45785;DHT22;31489;51.404;5.474;2024-03-06T05:58:35;8.30;71.90
45785;DHT22;31489;51.404;5.474;2024-03-06T06:01:02;8.20;71.80
45785;DHT22;31489;51.404;5.474;2024-03-06T06:03:31;8.20;71.80
45785;DHT22;31489;51.404;5.474;2024-03-06T06:05:57;8.20;71.80
45785;DHT22;31489;51.404;5.474;2024-03-06T06:08:24;8.20;71.90
45785;DHT22;31489;51.404;5.474;2024-03-06T06:10:49;8.20;71.90
45785;DHT22;31489;51.404;5.474;2024-03-06T06:13:18;8.20;71.90
45785;DHT22;31489;51.404;5.474;2024-03-06T06:15:44;8.10;71.80
45785;DHT22;31489;51.404;5.474;2024-03-06T06:18:09;8.10;71.80
45785;DHT22;31489;51.404;5.474;2024-03-06T06:20:35;8.10;71.80
45785;DHT22;31489;51.404;5.474;2024-03-06T06:23:01;8.10;71.80
45785;DHT22;31489;51.404;5.474;2024-03-06T06:25:27;8.10;72.40
45785;DHT22;31489;51.404;5.474;2024-03-06T06:27:52;8.10;71.80
45785;DHT22;31489;51.404;5.474;2024-03-06T06:30:18;8.10;71.90
45785;DHT22;31489;51.404;5.474;2024-03-06T06:32:44;8.00;71.80
45785;DHT22;31489;51.404;5.474;2024-03-06T06:35:11;8.10;72.00
45785;DHT22;31489;51.404;5.474;2024-03-06T06:37:38;8.00;71.90
45785;DHT22;31489;51.404;5.474;2024-03-06T06:40:06;8.00;72.00
45785;DHT22;31489;51.404;5.474;2024-03-06T06:42:33;8.00;72.10
45785;DHT22;31489;51.404;5.474;2024-03-06T06:44:59;8.00;72.10
45785;DHT22;31489;51.404;5.474;2024-03-06T06:47:26;8.00;72.10
45785;DHT22;31489;51.404;5.474;2024-03-06T06:49:52;8.00;72.30
45785;DHT22;31489;51.404;5.474;2024-03-06T06:52:18;8.00;72.30
45785;DHT22;31489;51.404;5.474;2024-03-06T06:54:44;8.00;72.40
45785;DHT22;31489;51.404;5.474;2024-03-06T06:57:10;8.00;72.60
45785;DHT22;31489;51.404;5.474;2024-03-06T06:59:36;8.00;72.60
45785;DHT22;31489;51.404;5.474;2024-03-06T07:02:04;8.10;72.80
45785;DHT22;31489;51.404;5.474;2024-03-06T07:04:31;8.10;72.90
45785;DHT22;31489;51.404;5.474;2024-03-06T07:06:57;8.10;73.00
45785;DHT22;31489;51.404;5.474;2024-03-06T07:09:22;8.10;73.10
45785;DHT22;31489;51.404;5.474;2024-03-06T07:11:51;8.20;73.40
45785;DHT22;31489;51.404;5.474;2024-03-06T07:14:17;8.20;73.50
45785;DHT22;31489;51.404;5.474;2024-03-06T07:16:43;8.20;73.50
45785;DHT22;31489;51.404;5.474;2024-03-06T07:19:09;8.30;73.60
45785;DHT22;31489;51.404;5.474;2024-03-06T07:21:34;8.30;73.80
45785;DHT22;31489;51.404;5.474;2024-03-06T07:24:00;8.30;73.90
45785;DHT22;31489;51.404;5.474;2024-03-06T07:26:32;8.40;74.10
45785;DHT22;31489;51.404;5.474;2024-03-06T07:29:01;8.40;74.50
45785;DHT22;31489;51.404;5.474;2024-03-06T07:31:28;8.50;74.40
45785;DHT22;31489;51.404;5.474;2024-03-06T07:33:53;8.60;74.50
45785;DHT22;31489;51.404;5.474;2024-03-06T07:36:20;8.60;74.60
45785;DHT22;31489;51.404;5.474;2024-03-06T07:38:46;8.60;74.70
45785;DHT22;31489;51.404;5.474;2024-03-06T07:41:12;8.70;74.70
45785;DHT22;31489;51.404;5.474;2024-03-06T07:43:40;8.70;74.70
45785;DHT22;31489;51.404;5.474;2024-03-06T07:46:12;8.70;74.70
45785;DHT22;31489;51.404;5.474;2024-03-06T07:48:38;8.80;74.70
45785;DHT22;31489;51.404;5.474;2024-03-06T07:51:12;8.80;74.80
45785;DHT22;31489;51.404;5.474;2024-03-06T07:53:38;8.90;74.90
45785;DHT22;31489;51.404;5.474;2024-03-06T07:56:10;8.90;75.00
45785;DHT22;31489;51.404;5.474;2024-03-06T07:58:40;9.00;75.50
45785;DHT22;31489;51.404;5.474;2024-03-06T08:01:06;9.10;75.80
45785;DHT22;31489;51.404;5.474;2024-03-06T08:03:42;9.10;75.90
45785;DHT22;31489;51.404;5.474;2024-03-06T08:06:13;9.20;76.30
45785;DHT22;31489;51.404;5.474;2024-03-06T08:08:44;9.20;76.00
45785;DHT22;31489;51.404;5.474;2024-03-06T08:11:10;9.30;76.30
45785;DHT22;31489;51.404;5.474;2024-03-06T08:13:39;9.30;76.20
45785;DHT22;31489;51.404;5.474;2024-03-06T08:16:06;9.30;76.30
45785;DHT22;31489;51.404;5.474;2024-03-06T08:18:35;9.40;76.20
45785;DHT22;31489;51.404;5.474;2024-03-06T08:21:02;9.40;76.30
45785;DHT22;31489;51.404;5.474;2024-03-06T08:23:29;9.50;76.90
45785;DHT22;31489;51.404;5.474;2024-03-06T08:25:56;9.60;76.40
45785;DHT22;31489;51.404;5.474;2024-03-06T08:28:21;9.60;76.50
45785;DHT22;31489;51.404;5.474;2024-03-06T08:30:47;9.70;76.60
45785;DHT22;31489;51.404;5.474;2024-03-06T08:33:13;9.70;76.60
45785;DHT22;31489;51.404;5.474;2024-03-06T08:35:39;9.80;76.70
45785;DHT22;31489;51.404;5.474;2024-03-06T08:38:05;9.80;76.70
45785;DHT22;31489;51.404;5.474;2024-03-06T08:40:31;9.90;76.70
45785;DHT22;31489;51.404;5.474;2024-03-06T08:43:03;9.90;76.70
45785;DHT22;31489;51.404;5.474;2024-03-06T08:45:29;10.00;77.10
45785;DHT22;31489;51.404;5.474;2024-03-06T08:47:55;10.00;76.80
45785;DHT22;31489;51.404;5.474;2024-03-06T08:50:20;10.10;77.00
45785;DHT22;31489;51.404;5.474;2024-03-06T08:52:49;10.10;77.50
45785;DHT22;31489;51.404;5.474;2024-03-06T08:55:18;10.20;77.40
45785;DHT22;31489;51.404;5.474;2024-03-06T08:57:44;10.30;77.60
45785;DHT22;31489;51.404;5.474;2024-03-06T09:00:10;10.30;77.50
45785;DHT22;31489;51.404;5.474;2024-03-06T09:02:40;10.40;77.40
45785;DHT22;31489;51.404;5.474;2024-03-06T09:05:09;10.50;77.40
45785;DHT22;31489;51.404;5.474;2024-03-06T09:07:39;10.60;77.60
45785;DHT22;31489;51.404;5.474;2024-03-06T09:10:11;10.70;77.30
45785;DHT22;31489;51.404;5.474;2024-03-06T09:12:39;10.70;77.40
45785;DHT22;31489;51.404;5.474;2024-03-06T09:15:06;10.80;77.40
45785;DHT22;31489;51.404;5.474;2024-03-06T09:17:35;10.90;77.60
45785;DHT22;31489;51.404;5.474;2024-03-06T09:20:05;11.00;77.70
45785;DHT22;31489;51.404;5.474;2024-03-06T09:22:41;11.10;78.10
45785;DHT22;31489;51.404;5.474;2024-03-06T09:25:11;11.20;78.30
45785;DHT22;31489;51.404;5.474;2024-03-06T09:27:42;11.30;77.80
45785;DHT22;31489;51.404;5.474;2024-03-06T09:30:08;11.50;77.60
45785;DHT22;31489;51.404;5.474;2024-03-06T09:32:34;11.60;77.40
45785;DHT22;31489;51.404;5.474;2024-03-06T09:35:00;11.70;77.10
45785;DHT22;31489;51.404;5.474;2024-03-06T09:37:26;11.80;77.10
45785;DHT22;31489;51.404;5.474;2024-03-06T09:39:53;11.90;76.70
45785;DHT22;31489;51.404;5.474;2024-03-06T09:42:21;12.00;76.10
45785;DHT22;31489;51.404;5.474;2024-03-06T09:44:47;12.20;75.80
45785;DHT22;31489;51.404;5.474;2024-03-06T09:47:13;12.30;75.40
45785;DHT22;31489;51.404;5.474;2024-03-06T09:49:53;12.30;75.20
45785;DHT22;31489;51.404;5.474;2024-03-06T09:52:19;12.40;75.20
45785;DHT22;31489;51.404;5.474;2024-03-06T09:54:45;12.50;75.40
45785;DHT22;31489;51.404;5.474;2024-03-06T09:57:11;12.60;75.50
45785;DHT22;31489;51.404;5.474;2024-03-06T09:59:39;12.70;75.00
45785;DHT22;31489;51.404;5.474;2024-03-06T10:02:18;12.90;74.80
45785;DHT22;31489;51.404;5.474;2024-03-06T10:04:47;12.90;74.50
45785;DHT22;31489;51.404;5.474;2024-03-06T10:07:18;13.00;74.50
45785;DHT22;31489;51.404;5.474;2024-03-06T10:09:47;13.10;74.70
45785;DHT22;31489;51.404;5.474;2024-03-06T10:12:15;13.20;74.60
45785;DHT22;31489;51.404;5.474;2024-03-06T10:14:51;13.40;74.20
45785;DHT22;31489;51.404;5.474;2024-03-06T10:17:21;13.50;73.10
45785;DHT22;31489;51.404;5.474;2024-03-06T10:19:52;13.60;73.50
45785;DHT22;31489;51.404;5.474;2024-03-06T10:22:21;13.80;73.40
45785;DHT22;31489;51.404;5.474;2024-03-06T10:24:49;13.90;73.50
45785;DHT22;31489;51.404;5.474;2024-03-06T10:27:16;14.20;73.80
45785;DHT22;31489;51.404;5.474;2024-03-06T10:29:44;14.50;74.50
45785;DHT22;31489;51.404;5.474;2024-03-06T10:32:10;14.90;74.80
45785;DHT22;31489;51.404;5.474;2024-03-06T10:34:44;15.40;74.80
45785;DHT22;31489;51.404;5.474;2024-03-06T10:37:11;15.90;74.10
45785;DHT22;31489;51.404;5.474;2024-03-06T10:39:41;16.50;74.20
45785;DHT22;31489;51.404;5.474;2024-03-06T10:42:07;17.10;72.90
45785;DHT22;31489;51.404;5.474;2024-03-06T10:44:34;17.60;72.00
45785;DHT22;31489;51.404;5.474;2024-03-06T10:47:08;18.10;69.10
45785;DHT22;31489;51.404;5.474;2024-03-06T10:49:35;18.40;66.00
45785;DHT22;31489;51.404;5.474;2024-03-06T10:52:03;18.60;65.20
45785;DHT22;31489;51.404;5.474;2024-03-06T10:54:33;18.70;63.90
45785;DHT22;31489;51.404;5.474;2024-03-06T10:57:01;18.70;62.70
45785;DHT22;31489;51.404;5.474;2024-03-06T10:59:30;18.70;62.30
45785;DHT22;31489;51.404;5.474;2024-03-06T11:01:56;18.60;60.90
45785;DHT22;31489;51.404;5.474;2024-03-06T11:04:27;18.40;60.40
45785;DHT22;31489;51.404;5.474;2024-03-06T11:06:56;18.20;61.00
45785;DHT22;31489;51.404;5.474;2024-03-06T11:09:36;18.00;61.90
45785;DHT22;31489;51.404;5.474;2024-03-06T11:12:05;17.90;61.20
45785;DHT22;31489;51.404;5.474;2024-03-06T11:14:39;17.80;61.20
45785;DHT22;31489;51.404;5.474;2024-03-06T11:17:11;17.80;60.50
45785;DHT22;31489;51.404;5.474;2024-03-06T11:28:22;18.90;61.80
45785;DHT22;31489;51.404;5.474;2024-03-06T11:30:55;19.40;62.40
45785;DHT22;31489;51.404;5.474;2024-03-06T11:33:21;20.00;61.10
45785;DHT22;31489;51.404;5.474;2024-03-06T11:36:24;20.60;62.00
45785;DHT22;31489;51.404;5.474;2024-03-06T11:38:51;21.30;59.00
45785;DHT22;31489;51.404;5.474;2024-03-06T11:41:25;21.90;59.10
45785;DHT22;31489;51.404;5.474;2024-03-06T11:43:52;22.30;56.60
45785;DHT22;31489;51.404;5.474;2024-03-06T11:51:46;23.50;53.20
45785;DHT22;31489;51.404;5.474;2024-03-06T11:54:12;23.70;51.30
45785;DHT22;31489;51.404;5.474;2024-03-06T11:56:47;23.60;50.10
45785;DHT22;31489;51.404;5.474;2024-03-06T11:59:13;23.30;49.50
45785;DHT22;31489;51.404;5.474;2024-03-06T12:01:41;23.20;49.70
45785;DHT22;31489;51.404;5.474;2024-03-06T12:04:07;23.10;48.70
45785;DHT22;31489;51.404;5.474;2024-03-06T12:06:33;23.10;49.60
45785;DHT22;31489;51.404;5.474;2024-03-06T12:08:59;23.20;49.80
45785;DHT22;31489;51.404;5.474;2024-03-06T12:11:30;23.40;49.60
45785;DHT22;31489;51.404;5.474;2024-03-06T12:13:56;23.60;49.40
45785;DHT22;31489;51.404;5.474;2024-03-06T12:16:29;23.80;48.80
45785;DHT22;31489;51.404;5.474;2024-03-06T12:18:56;24.10;48.00
45785;DHT22;31489;51.404;5.474;2024-03-06T12:21:28;24.20;47.10
45785;DHT22;31489;51.404;5.474;2024-03-06T12:24:08;24.30;46.00
45785;DHT22;31489;51.404;5.474;2024-03-06T12:26:35;24.40;45.80
45785;DHT22;31489;51.404;5.474;2024-03-06T12:29:06;24.50;49.40
45785;DHT22;31489;51.404;5.474;2024-03-06T12:31:37;24.60;47.40
45785;DHT22;31489;51.404;5.474;2024-03-06T12:34:04;24.70;45.70
45785;DHT22;31489;51.404;5.474;2024-03-06T12:36:33;24.80;46.00
45785;DHT22;31489;51.404;5.474;2024-03-06T12:39:00;24.80;44.80
45785;DHT22;31489;51.404;5.474;2024-03-06T12:41:27;24.70;43.70
45785;DHT22;31489;51.404;5.474;2024-03-06T12:43:53;24.50;43.20
45785;DHT22;31489;51.404;5.474;2024-03-06T12:46:25;24.30;43.80
45785;DHT22;31489;51.404;5.474;2024-03-06T12:48:55;23.90;42.30
45785;DHT22;31489;51.404;5.474;2024-03-06T12:51:22;23.60;45.40
45785;DHT22;31489;51.404;5.474;2024-03-06T12:53:47;23.30;43.80
45785;DHT22;31489;51.404;5.474;2024-03-06T12:56:13;23.00;43.90
45785;DHT22;31489;51.404;5.474;2024-03-06T12:58:41;22.70;43.60
45785;DHT22;31489;51.404;5.474;2024-03-06T13:01:07;22.30;44.00
45785;DHT22;31489;51.404;5.474;2024-03-06T13:03:33;21.90;44.20
45785;DHT22;31489;51.404;5.474;2024-03-06T13:05:59;21.60;44.10
45785;DHT22;31489;51.404;5.474;2024-03-06T13:08:25;21.20;44.50
45785;DHT22;31489;51.404;5.474;2024-03-06T13:10:51;20.90;44.80
45785;DHT22;31489;51.404;5.474;2024-03-06T13:13:19;20.60;45.00
45785;DHT22;31489;51.404;5.474;2024-03-06T13:15:46;20.40;45.70
45785;DHT22;31489;51.404;5.474;2024-03-06T13:18:13;20.10;45.70
45785;DHT22;31489;51.404;5.474;2024-03-06T13:20:42;19.90;46.10
45785;DHT22;31489;51.404;5.474;2024-03-06T13:23:08;19.70;47.10
45785;DHT22;31489;51.404;5.474;2024-03-06T13:25:34;19.60;47.50
45785;DHT22;31489;51.404;5.474;2024-03-06T13:28:00;19.50;47.70
45785;DHT22;31489;51.404;5.474;2024-03-06T13:30:27;19.30;48.50
45785;DHT22;31489;51.404;5.474;2024-03-06T13:32:56;19.20;48.50
45785;DHT22;31489;51.404;5.474;2024-03-06T13:35:22;19.10;48.10
45785;DHT22;31489;51.404;5.474;2024-03-06T13:37:47;19.00;48.70
45785;DHT22;31489;51.404;5.474;2024-03-06T13:40:14;18.90;48.40
45785;DHT22;31489;51.404;5.474;2024-03-06T13:42:41;18.80;48.10
45785;DHT22;31489;51.404;5.474;2024-03-06T13:45:08;18.70;48.10
45785;DHT22;31489;51.404;5.474;2024-03-06T13:47:38;18.60;47.70
45785;DHT22;31489;51.404;5.474;2024-03-06T13:50:07;18.60;47.70
45785;DHT22;31489;51.404;5.474;2024-03-06T13:52:33;18.50;47.70
45785;DHT22;31489;51.404;5.474;2024-03-06T13:54:59;18.50;48.10
45785;DHT22;31489;51.404;5.474;2024-03-06T13:57:28;18.50;48.10
45785;DHT22;31489;51.404;5.474;2024-03-06T13:59:54;18.50;47.80
45785;DHT22;31489;51.404;5.474;2024-03-06T14:02:19;18.50;48.80
45785;DHT22;31489;51.404;5.474;2024-03-06T14:04:45;18.50;49.00
45785;DHT22;31489;51.404;5.474;2024-03-06T14:07:11;18.50;48.30
45785;DHT22;31489;51.404;5.474;2024-03-06T14:09:37;18.60;50.10
45785;DHT22;31489;51.404;5.474;2024-03-06T14:12:03;18.70;48.20
45785;DHT22;31489;51.404;5.474;2024-03-06T14:14:28;18.70;47.70
45785;DHT22;31489;51.404;5.474;2024-03-06T14:16:55;18.80;47.30
45785;DHT22;31489;51.404;5.474;2024-03-06T14:19:20;18.80;47.10
45785;DHT22;31489;51.404;5.474;2024-03-06T14:21:50;18.90;47.30
45785;DHT22;31489;51.404;5.474;2024-03-06T14:24:17;19.00;47.60
45785;DHT22;31489;51.404;5.474;2024-03-06T14:26:43;19.00;47.50
45785;DHT22;31489;51.404;5.474;2024-03-06T14:29:09;19.10;47.10
45785;DHT22;31489;51.404;5.474;2024-03-06T14:31:35;19.10;47.10
45785;DHT22;31489;51.404;5.474;2024-03-06T14:34:01;19.10;46.70
45785;DHT22;31489;51.404;5.474;2024-03-06T14:36:27;19.10;46.90
45785;DHT22;31489;51.404;5.474;2024-03-06T14:38:53;19.00;46.70
45785;DHT22;31489;51.404;5.474;2024-03-06T14:41:19;19.00;46.80
45785;DHT22;31489;51.404;5.474;2024-03-06T14:43:46;18.90;47.10
45785;DHT22;31489;51.404;5.474;2024-03-06T14:46:12;18.80;47.10
45785;DHT22;31489;51.404;5.474;2024-03-06T14:48:38;18.80;47.30
45785;DHT22;31489;51.404;5.474;2024-03-06T14:51:07;18.70;47.20
45785;DHT22;31489;51.404;5.474;2024-03-06T14:53:34;18.60;47.50
45785;DHT22;31489;51.404;5.474;2024-03-06T14:55:59;18.60;47.60
45785;DHT22;31489;51.404;5.474;2024-03-06T14:58:28;18.60;47.40
45785;DHT22;31489;51.404;5.474;2024-03-06T15:00:54;18.70;47.00
45785;DHT22;31489;51.404;5.474;2024-03-06T15:03:20;18.80;47.70
45785;DHT22;31489;51.404;5.474;2024-03-06T15:05:48;18.80;47.50
45785;DHT22;31489;51.404;5.474;2024-03-06T15:08:15;18.90;47.10
45785;DHT22;31489;51.404;5.474;2024-03-06T15:10:41;19.00;47.20
45785;DHT22;31489;51.404;5.474;2024-03-06T15:13:09;19.00;46.80
45785;DHT22;31489;51.404;5.474;2024-03-06T15:15:38;18.90;46.60
45785;DHT22;31489;51.404;5.474;2024-03-06T15:18:08;18.90;46.50
45785;DHT22;31489;51.404;5.474;2024-03-06T15:20:33;18.90;46.10
45785;DHT22;31489;51.404;5.474;2024-03-06T15:22:59;18.80;46.60
45785;DHT22;31489;51.404;5.474;2024-03-06T15:25:28;18.70;46.50
45785;DHT22;31489;51.404;5.474;2024-03-06T15:27:54;18.70;46.20
45785;DHT22;31489;51.404;5.474;2024-03-06T15:30:19;18.60;46.00
45785;DHT22;31489;51.404;5.474;2024-03-06T15:32:46;18.60;46.60
45785;DHT22;31489;51.404;5.474;2024-03-06T15:35:12;18.60;46.20
45785;DHT22;31489;51.404;5.474;2024-03-06T15:37:38;18.50;45.80
45785;DHT22;31489;51.404;5.474;2024-03-06T15:40:04;18.40;45.90
45785;DHT22;31489;51.404;5.474;2024-03-06T15:42:32;18.40;46.50
45785;DHT22;31489;51.404;5.474;2024-03-06T15:44:57;18.30;46.00
45785;DHT22;31489;51.404;5.474;2024-03-06T15:47:26;18.20;46.50
45785;DHT22;31489;51.404;5.474;2024-03-06T15:49:52;18.20;46.30
45785;DHT22;31489;51.404;5.474;2024-03-06T15:52:21;18.20;46.20